createdAt,value
2023-05-05T00:01:50.417Z,51.86
2023-05-05T00:04:16.626Z,52.04
2023-05-05T00:06:42.809Z,51.96
2023-05-05T00:09:08.907Z,52.46
2023-05-05T00:11:35.009Z,52.69
2023-05-05T00:14:01.135Z,53.43
2023-05-05T00:16:27.288Z,53.00
2023-05-05T00:18:53.489Z,53.88
2023-05-05T00:21:19.594Z,53.34
2023-05-05T00:23:45.997Z,53.32
2023-05-05T00:26:12.137Z,53.55
2023-05-05T00:28:38.253Z,53.75
2023-05-05T00:31:04.389Z,53.28
2023-05-05T00:33:30.547Z,52.91
2023-05-05T00:35:56.786Z,53.04
2023-05-05T00:38:22.926Z,53.07
2023-05-05T00:40:49.340Z,53.35
2023-05-05T00:43:15.424Z,53.56
2023-05-05T00:45:41.519Z,53.65
2023-05-05T00:48:07.703Z,53.57
2023-05-05T00:50:33.979Z,52.30
2023-05-05T00:53:00.277Z,51.77
2023-05-05T00:55:26.397Z,51.97
2023-05-05T00:57:52.848Z,52.82
2023-05-05T01:00:18.957Z,52.44
2023-05-05T01:02:45.166Z,51.88
2023-05-05T01:05:11.305Z,52.11
2023-05-05T01:07:37.396Z,52.31
2023-05-05T01:10:18.236Z,52.09
2023-05-05T01:12:45.652Z,52.80
2023-05-05T01:15:11.784Z,52.39
2023-05-05T01:17:37.973Z,53.57
2023-05-05T01:20:04.137Z,53.91
2023-05-05T01:22:30.277Z,53.86
2023-05-05T01:24:56.394Z,54.55
2023-05-05T01:27:22.532Z,54.38
2023-05-05T01:29:48.664Z,54.82
2023-05-05T01:32:14.772Z,55.26
2023-05-05T01:34:40.886Z,55.28
2023-05-05T01:37:06.975Z,55.47
2023-05-05T01:39:33.234Z,55.64
2023-05-05T01:41:59.336Z,55.13
2023-05-05T01:44:25.461Z,54.51
2023-05-05T01:46:51.564Z,55.31
2023-05-05T01:49:17.703Z,55.77
2023-05-05T01:51:43.810Z,55.01
2023-05-05T01:54:09.916Z,54.46
2023-05-05T01:56:36.054Z,54.63
2023-05-05T01:59:02.190Z,54.67
2023-05-05T02:01:28.309Z,54.80
2023-05-05T02:03:54.420Z,55.05
2023-05-05T02:06:20.542Z,55.99
2023-05-05T02:08:46.677Z,56.08
2023-05-05T02:11:12.796Z,56.41
2023-05-05T02:13:38.960Z,56.41
2023-05-05T02:16:05.169Z,56.68
2023-05-05T02:18:31.279Z,55.92
2023-05-05T02:20:57.397Z,56.00
2023-05-05T02:23:23.507Z,55.65
2023-05-05T02:25:49.586Z,55.93
2023-05-05T02:28:15.711Z,56.03
2023-05-05T02:30:41.821Z,55.09
2023-05-05T02:33:08.005Z,55.60
2023-05-05T02:35:34.144Z,55.86
2023-05-05T02:38:00.228Z,55.98
2023-05-05T02:40:26.441Z,55.73
2023-05-05T02:42:52.601Z,55.54
2023-05-05T02:45:18.775Z,55.96
2023-05-05T02:47:44.890Z,56.32
2023-05-05T02:50:11.311Z,56.38
2023-05-05T02:52:37.533Z,56.09
2023-05-05T02:55:03.785Z,55.90
2023-05-05T02:57:29.888Z,55.99
2023-05-05T02:59:56.011Z,56.18
2023-05-05T03:02:22.205Z,56.04
2023-05-05T03:04:48.372Z,55.63
2023-05-05T03:07:14.526Z,56.17
2023-05-05T03:09:40.624Z,56.68
2023-05-05T03:12:06.712Z,56.55
2023-05-05T03:14:33.532Z,55.77
2023-05-05T03:16:59.725Z,56.56
2023-05-05T03:19:25.820Z,55.38
2023-05-05T03:21:51.945Z,55.07
2023-05-05T03:24:18.094Z,56.16
2023-05-05T03:26:44.564Z,56.13
2023-05-05T03:29:10.800Z,56.08
2023-05-05T03:31:36.976Z,56.03
2023-05-05T03:34:03.435Z,56.02
2023-05-05T03:36:29.623Z,56.15
2023-05-05T03:38:55.800Z,56.16
2023-05-05T03:41:22.018Z,56.24
2023-05-05T03:43:48.158Z,56.33
2023-05-05T03:46:14.378Z,56.33
2023-05-05T03:48:40.524Z,56.45
2023-05-05T03:51:06.642Z,56.75
2023-05-05T03:53:32.752Z,56.17
2023-05-05T03:55:58.848Z,56.51
2023-05-05T03:58:24.953Z,57.06
2023-05-05T04:00:51.083Z,56.71
2023-05-05T04:03:17.387Z,56.79
2023-05-05T04:05:43.642Z,56.74
2023-05-05T04:08:09.764Z,56.87
2023-05-05T04:10:35.882Z,56.48
2023-05-05T04:13:02.080Z,56.37
2023-05-05T04:15:28.267Z,55.92
2023-05-05T04:17:54.405Z,56.24
2023-05-05T04:20:20.563Z,55.82
2023-05-05T04:22:46.680Z,55.44
2023-05-05T04:25:12.784Z,55.45
2023-05-05T04:27:38.896Z,56.07
2023-05-05T04:30:05.122Z,55.41
2023-05-05T04:32:31.326Z,55.87
2023-05-05T04:34:57.458Z,55.67
2023-05-05T04:37:23.576Z,55.94
2023-05-05T04:39:49.705Z,56.15
2023-05-05T04:42:15.815Z,55.68
2023-05-05T04:44:41.931Z,55.88
2023-05-05T04:47:08.043Z,56.27
2023-05-05T04:49:34.170Z,56.13
2023-05-05T04:52:00.335Z,55.87
2023-05-05T04:54:26.461Z,55.80
2023-05-05T04:56:52.556Z,55.36
2023-05-05T04:59:18.677Z,54.84
2023-05-05T05:01:44.823Z,54.86
2023-05-05T05:04:10.940Z,55.78
2023-05-05T05:06:37.071Z,55.36
2023-05-05T05:09:03.194Z,55.34
2023-05-05T05:11:29.474Z,55.25
2023-05-05T05:13:55.603Z,54.47
2023-05-05T05:16:21.759Z,54.08
2023-05-05T05:18:47.881Z,54.24
2023-05-05T05:21:14.081Z,53.65
2023-05-05T05:23:40.176Z,53.79
2023-05-05T05:26:06.459Z,54.10
2023-05-05T05:28:32.557Z,53.92
2023-05-05T05:30:58.644Z,53.61
2023-05-05T05:33:24.876Z,53.52
2023-05-05T05:35:50.958Z,53.15
2023-05-05T05:38:17.082Z,53.44
2023-05-05T05:40:43.218Z,53.64
2023-05-05T05:43:09.334Z,53.82
2023-05-05T05:45:35.466Z,52.48
2023-05-05T05:48:01.672Z,52.53
2023-05-05T05:50:27.817Z,52.12
2023-05-05T05:52:53.906Z,52.52
2023-05-05T05:55:20.021Z,52.00
2023-05-05T05:57:46.150Z,51.97
2023-05-05T06:00:12.259Z,52.00
2023-05-05T06:02:38.486Z,51.63
2023-05-05T06:05:04.778Z,51.06
2023-05-05T06:07:30.925Z,51.63
2023-05-05T06:09:57.048Z,50.94
2023-05-05T06:12:23.144Z,51.02
2023-05-05T06:14:49.228Z,51.03
2023-05-05T06:17:15.331Z,51.87
2023-05-05T06:19:41.429Z,50.81
2023-05-05T06:22:07.552Z,51.58
2023-05-05T06:24:33.718Z,51.46
2023-05-05T06:26:59.836Z,51.83
2023-05-05T06:29:25.966Z,51.47
2023-05-05T06:31:52.203Z,51.41
2023-05-05T06:34:18.313Z,51.84
2023-05-05T06:36:44.437Z,50.94
2023-05-05T06:39:10.590Z,48.68
2023-05-05T06:41:36.684Z,48.00
2023-05-05T06:44:02.784Z,48.58
2023-05-05T06:46:29.034Z,47.57
2023-05-05T06:48:55.141Z,46.88
2023-05-05T06:51:21.239Z,46.21
2023-05-05T06:53:47.366Z,45.36
2023-05-05T06:56:13.482Z,46.06
2023-05-05T06:58:39.616Z,45.62
2023-05-05T07:01:05.757Z,44.63
2023-05-05T07:03:31.958Z,44.34
2023-05-05T07:05:58.067Z,43.85
2023-05-05T07:08:24.176Z,43.74
2023-05-05T07:10:50.293Z,41.82
2023-05-05T07:13:16.610Z,40.39
2023-05-05T07:15:42.765Z,41.39
2023-05-05T07:18:08.909Z,40.59
2023-05-05T07:20:35.080Z,41.23
2023-05-05T07:23:01.327Z,40.58
2023-05-05T07:25:27.454Z,39.70
2023-05-05T07:27:53.576Z,38.16
2023-05-05T07:30:20.181Z,37.28
2023-05-05T07:32:46.518Z,35.23
2023-05-05T07:35:12.737Z,36.41
2023-05-05T07:37:38.886Z,37.01
2023-05-05T07:40:05.050Z,34.95
2023-05-05T07:42:31.157Z,33.54
2023-05-05T07:44:57.284Z,33.45
2023-05-05T07:47:23.568Z,34.23
2023-05-05T07:49:49.714Z,34.72
2023-05-05T07:52:15.816Z,35.00
2023-05-05T07:54:41.928Z,33.92
2023-05-05T07:57:08.048Z,33.53
2023-05-05T07:59:34.185Z,34.94
2023-05-05T08:02:00.270Z,34.57
2023-05-05T08:04:26.408Z,34.26
2023-05-05T08:06:52.555Z,34.56
2023-05-05T08:09:18.677Z,34.75
2023-05-05T08:11:44.783Z,37.61
2023-05-05T08:14:10.894Z,36.53
2023-05-05T08:16:37.043Z,35.94
2023-05-05T08:19:04.106Z,36.98
2023-05-05T08:21:31.130Z,36.70
2023-05-05T08:23:57.227Z,34.97
2023-05-05T08:26:23.345Z,37.66
2023-05-05T08:28:49.433Z,38.15
2023-05-05T08:31:15.560Z,39.65
2023-05-05T08:33:41.751Z,38.34
2023-05-05T08:36:07.891Z,38.60
2023-05-05T08:38:34.033Z,39.92
2023-05-05T08:41:00.171Z,39.83
2023-05-05T08:43:26.319Z,40.51
2023-05-05T08:45:52.488Z,39.62
2023-05-05T08:48:18.590Z,38.84
2023-05-05T08:50:44.701Z,40.33
2023-05-05T08:53:10.796Z,40.95
2023-05-05T08:55:36.914Z,41.59
2023-05-05T08:58:03.014Z,40.35
2023-05-05T09:00:29.165Z,41.10
2023-05-05T09:02:55.346Z,42.62
2023-05-05T09:05:21.486Z,41.89
2023-05-05T09:07:47.651Z,41.67
2023-05-05T09:10:13.797Z,40.74
2023-05-05T09:12:39.912Z,39.69
2023-05-05T09:15:06.089Z,39.90
2023-05-05T09:17:32.263Z,39.03
2023-05-05T09:19:58.374Z,38.73
2023-05-05T09:22:24.501Z,38.28
2023-05-05T09:24:50.610Z,38.43
2023-05-05T09:27:16.765Z,39.39
2023-05-05T09:29:42.892Z,39.03
2023-05-05T09:32:09.192Z,39.26
2023-05-05T09:34:35.356Z,39.17
2023-05-05T09:37:01.553Z,38.92
2023-05-05T09:39:27.725Z,38.91
2023-05-05T09:41:53.813Z,37.84
2023-05-05T09:44:19.940Z,36.09
2023-05-05T09:46:46.157Z,36.57
2023-05-05T09:49:12.352Z,36.72
2023-05-05T09:51:38.505Z,35.13
2023-05-05T09:54:04.665Z,35.34
2023-05-05T09:56:30.805Z,35.40
2023-05-05T09:58:58.699Z,34.77
2023-05-05T10:01:24.889Z,34.42
2023-05-05T10:03:51.037Z,34.44
2023-05-05T10:06:17.164Z,34.45
2023-05-05T10:08:43.273Z,35.40
2023-05-05T10:11:09.381Z,36.06
2023-05-05T10:13:35.551Z,36.27
2023-05-05T10:16:01.825Z,35.88
2023-05-05T10:18:27.981Z,36.46
2023-05-05T10:20:54.145Z,36.18
2023-05-05T10:23:20.256Z,36.48
2023-05-05T10:25:46.417Z,34.41
2023-05-05T10:28:12.544Z,33.24
2023-05-05T10:30:38.636Z,34.65
2023-05-05T10:33:26.709Z,35.56
2023-05-05T10:35:50.876Z,33.88
2023-05-05T10:38:17.007Z,33.72
2023-05-05T10:40:43.183Z,36.02
2023-05-05T10:43:09.329Z,33.88
2023-05-05T10:45:35.674Z,33.29
2023-05-05T10:48:01.924Z,33.82
2023-05-05T10:50:28.086Z,32.37
2023-05-05T10:52:54.265Z,34.26
2023-05-05T10:55:20.458Z,34.06
2023-05-05T10:57:46.560Z,33.04
2023-05-05T11:00:14.072Z,33.11
2023-05-05T11:02:41.216Z,33.86
2023-05-05T11:05:07.342Z,33.74
2023-05-05T11:07:33.497Z,33.11
2023-05-05T11:09:59.598Z,33.92
2023-05-05T11:12:25.687Z,33.62
2023-05-05T11:14:51.829Z,34.21
2023-05-05T11:17:18.063Z,33.62
2023-05-05T11:19:44.200Z,33.96
2023-05-05T11:22:10.336Z,33.73
2023-05-05T11:24:36.445Z,32.82
2023-05-05T11:27:02.541Z,33.16
2023-05-05T11:29:28.628Z,33.10
2023-05-05T11:31:54.722Z,33.67
2023-05-05T11:34:20.871Z,33.88
2023-05-05T11:36:47.131Z,34.94
2023-05-05T11:39:13.243Z,33.97
2023-05-05T11:41:39.393Z,33.75
2023-05-05T11:44:05.488Z,34.83
2023-05-05T11:46:31.679Z,33.15
2023-05-05T11:48:57.800Z,33.59
2023-05-05T11:51:23.891Z,34.09
2023-05-05T11:53:50.009Z,33.83
2023-05-05T11:56:16.171Z,33.96
2023-05-05T11:58:42.275Z,33.77
2023-05-05T12:01:08.399Z,32.61
2023-05-05T12:03:34.630Z,34.42
2023-05-05T12:06:00.873Z,33.88
2023-05-05T12:08:27.014Z,33.47
2023-05-05T12:10:53.098Z,34.90
2023-05-05T12:13:19.321Z,32.53
2023-05-05T12:15:45.528Z,33.83
2023-05-05T12:18:12.022Z,33.17
2023-05-05T12:20:38.157Z,32.40
2023-05-05T12:23:04.326Z,34.09
2023-05-05T12:25:30.472Z,33.64
2023-05-05T12:27:56.563Z,33.77
2023-05-05T12:30:22.725Z,33.16
2023-05-05T12:32:48.868Z,34.20
2023-05-05T12:35:14.981Z,33.74
2023-05-05T12:37:41.099Z,32.72
2023-05-05T12:40:07.341Z,32.05
2023-05-05T12:42:33.692Z,32.51
2023-05-05T12:44:59.811Z,32.66
2023-05-05T12:47:25.931Z,32.63
2023-05-05T12:49:52.119Z,30.19
2023-05-05T12:52:18.224Z,33.01
2023-05-05T12:54:44.328Z,31.98
2023-05-05T12:57:10.427Z,33.20
2023-05-05T12:59:36.550Z,30.21
2023-05-05T13:02:02.708Z,30.66
2023-05-05T13:04:28.822Z,32.24
2023-05-05T13:06:54.906Z,29.05
2023-05-05T13:09:20.999Z,30.22
2023-05-05T13:11:47.093Z,29.66
2023-05-05T13:14:13.193Z,29.15
2023-05-05T13:16:39.333Z,29.83
2023-05-05T13:19:05.487Z,31.35
2023-05-05T13:21:31.846Z,30.07
2023-05-05T13:24:08.094Z,31.67
2023-05-05T13:26:44.099Z,30.25
2023-05-05T13:29:10.202Z,31.60
2023-05-05T13:31:36.369Z,31.69
2023-05-05T13:34:02.590Z,31.76
2023-05-05T13:36:28.681Z,32.36
2023-05-05T13:38:54.829Z,31.80
2023-05-05T13:41:20.948Z,31.14
2023-05-05T13:43:47.041Z,29.38
2023-05-05T13:48:42.606Z,30.77
2023-05-05T13:51:08.718Z,31.95
2023-05-05T13:53:34.804Z,32.07
2023-05-05T13:56:00.896Z,33.18
2023-05-05T13:58:26.996Z,32.03
2023-05-05T14:00:53.119Z,32.56
2023-05-05T14:03:19.270Z,32.16
2023-05-05T14:05:45.371Z,31.70
2023-05-05T14:08:11.468Z,33.40
2023-05-05T14:10:37.693Z,33.00
2023-05-05T14:13:03.783Z,32.66
2023-05-05T14:15:29.903Z,32.19
2023-05-05T14:17:56.072Z,33.08
2023-05-05T14:20:22.205Z,32.23
2023-05-05T14:22:49.395Z,32.73
2023-05-05T14:25:15.590Z,33.82
2023-05-05T14:27:41.696Z,34.81
2023-05-05T14:30:07.787Z,35.65
2023-05-05T14:32:33.972Z,36.18
2023-05-05T14:35:00.166Z,37.03
2023-05-05T14:37:26.304Z,36.54
2023-05-05T14:39:52.420Z,36.02
2023-05-05T14:42:18.518Z,35.96
2023-05-05T14:44:44.625Z,36.15
2023-05-05T14:47:10.729Z,35.96
2023-05-05T14:49:36.830Z,36.43
2023-05-05T14:52:02.930Z,36.26
2023-05-05T14:54:29.237Z,36.56
2023-05-05T14:56:56.765Z,36.70
2023-05-05T14:59:22.916Z,37.50
2023-05-05T15:01:49.072Z,38.25
2023-05-05T15:04:15.238Z,37.15
2023-05-05T15:06:41.365Z,34.95
2023-05-05T15:09:07.480Z,36.12
2023-05-05T15:11:33.675Z,35.40
2023-05-05T15:13:59.782Z,35.99
2023-05-05T15:16:25.886Z,36.58
2023-05-05T15:18:52.001Z,36.72
2023-05-05T15:21:18.132Z,36.99
2023-05-05T15:23:44.246Z,36.82
2023-05-05T15:26:10.410Z,36.55
2023-05-05T15:28:36.550Z,35.89
2023-05-05T15:31:02.649Z,36.34
2023-05-05T15:33:28.738Z,35.48
2023-05-05T15:35:54.862Z,35.90
2023-05-05T15:38:20.972Z,36.13
2023-05-05T15:40:48.942Z,37.01
2023-05-05T15:43:16.314Z,35.82
2023-05-05T15:45:42.436Z,36.42
2023-05-05T15:48:08.611Z,35.91
2023-05-05T15:50:34.724Z,35.06
2023-05-05T15:53:00.840Z,35.08
2023-05-05T15:55:26.934Z,34.83
2023-05-05T15:57:53.194Z,34.85
2023-05-05T16:00:19.289Z,34.75
2023-05-05T16:02:45.653Z,35.82
2023-05-05T16:05:11.857Z,36.76
2023-05-05T16:07:37.988Z,36.95
2023-05-05T16:10:04.120Z,37.20
2023-05-05T16:12:30.245Z,37.42
2023-05-05T16:14:56.493Z,36.81
2023-05-05T16:17:22.854Z,36.61
2023-05-05T16:19:49.029Z,37.56
2023-05-05T16:22:15.176Z,37.33
2023-05-05T16:24:43.099Z,38.13
2023-05-05T16:27:10.392Z,37.85
2023-05-05T16:29:36.494Z,37.42
2023-05-05T16:32:02.897Z,37.63
2023-05-05T16:34:29.084Z,38.21
2023-05-05T16:36:55.252Z,38.27
2023-05-05T16:39:21.494Z,38.65
2023-05-05T16:41:47.580Z,37.77
2023-05-05T16:44:13.724Z,37.92
2023-05-05T16:46:39.922Z,37.12
2023-05-05T16:49:06.163Z,37.37
2023-05-05T16:51:32.287Z,36.94
2023-05-05T16:53:58.421Z,38.40
2023-05-05T16:56:24.547Z,40.20
2023-05-05T16:58:51.011Z,40.75
2023-05-05T17:01:17.113Z,40.47
2023-05-05T17:03:43.205Z,41.10
2023-05-05T17:06:09.301Z,42.17
2023-05-05T17:08:35.411Z,41.75
2023-05-05T17:11:01.514Z,42.11
2023-05-05T17:13:27.613Z,41.81
2023-05-05T17:15:53.767Z,42.26
2023-05-05T17:18:19.880Z,42.01
2023-05-05T17:20:46.010Z,41.37
2023-05-05T17:23:12.117Z,41.39
2023-05-05T17:25:38.266Z,40.92
2023-05-05T17:28:04.406Z,40.22
2023-05-05T17:30:30.510Z,39.48
2023-05-05T17:32:56.603Z,38.96
2023-05-05T17:35:22.747Z,37.98
2023-05-05T17:37:48.901Z,38.09
2023-05-05T17:40:15.014Z,36.84
2023-05-05T17:42:41.153Z,37.08
2023-05-05T17:45:07.496Z,36.25
2023-05-05T17:47:34.104Z,36.23
2023-05-05T17:50:00.249Z,35.89
2023-05-05T17:52:26.386Z,36.08
2023-05-05T17:54:52.502Z,35.73
2023-05-05T17:57:18.598Z,36.03
2023-05-05T17:59:44.700Z,35.35
2023-05-05T18:02:10.855Z,36.12
2023-05-05T18:04:36.957Z,35.85
2023-05-05T18:07:03.121Z,35.33
2023-05-05T18:09:29.252Z,35.85
2023-05-05T18:11:55.352Z,37.85
2023-05-05T18:14:21.461Z,36.85
2023-05-05T18:16:47.618Z,38.05
2023-05-05T18:19:13.754Z,39.01
2023-05-05T18:21:39.843Z,39.98
2023-05-05T18:24:18.576Z,38.71
2023-05-05T18:26:45.970Z,39.54
2023-05-05T18:29:12.087Z,39.67
2023-05-05T18:31:38.222Z,39.75
2023-05-05T18:34:04.350Z,40.07
2023-05-05T18:36:30.465Z,42.24
2023-05-05T18:38:56.583Z,40.77
2023-05-05T18:41:22.694Z,40.99
2023-05-05T18:43:48.815Z,42.09
2023-05-05T18:46:14.950Z,41.80
2023-05-05T18:48:41.061Z,41.59
2023-05-05T18:51:07.152Z,42.23
2023-05-05T18:53:33.271Z,42.86
2023-05-05T18:55:59.501Z,42.54
2023-05-05T18:58:25.615Z,43.16
2023-05-05T19:00:51.794Z,43.39
2023-05-05T19:03:17.920Z,43.92
2023-05-05T19:05:44.040Z,44.12
2023-05-05T19:08:10.143Z,45.06
2023-05-05T19:10:36.252Z,44.99
2023-05-05T19:13:02.357Z,44.88
2023-05-05T19:15:28.486Z,44.92
2023-05-05T19:17:54.616Z,45.19
2023-05-05T19:20:20.769Z,44.85
2023-05-05T19:22:46.882Z,45.28
2023-05-05T19:25:12.996Z,45.26
2023-05-05T19:27:39.110Z,45.06
2023-05-05T19:30:05.241Z,44.27
2023-05-05T19:32:31.410Z,44.33
2023-05-05T19:34:57.516Z,44.55
2023-05-05T19:37:23.618Z,45.73
2023-05-05T19:39:50.395Z,45.45
2023-05-05T19:42:17.657Z,44.86
2023-05-05T19:44:43.742Z,45.31
2023-05-05T19:47:10.980Z,45.57
2023-05-05T19:49:37.380Z,46.00
2023-05-05T19:52:03.489Z,45.47
2023-05-05T19:54:29.621Z,46.31
2023-05-05T19:56:57.190Z,46.43
2023-05-05T19:59:23.456Z,46.03
2023-05-05T20:01:49.693Z,46.11
2023-05-05T20:04:15.915Z,47.18
2023-05-05T20:06:42.052Z,47.39
2023-05-05T20:09:08.169Z,47.41
2023-05-05T20:11:34.336Z,47.62
2023-05-05T20:14:00.435Z,47.83
2023-05-05T20:16:26.651Z,47.38
2023-05-05T20:18:52.848Z,47.86
2023-05-05T20:21:18.990Z,47.46
2023-05-05T20:23:45.146Z,47.54
2023-05-05T20:26:11.294Z,47.38
2023-05-05T20:28:37.438Z,47.84
2023-05-05T20:31:03.593Z,47.05
2023-05-05T20:33:29.749Z,46.52
2023-05-05T20:35:56.301Z,47.65
2023-05-05T20:38:22.395Z,48.27
2023-05-05T20:40:48.487Z,48.17
2023-05-05T20:43:14.586Z,48.25
2023-05-05T20:45:40.714Z,48.71
2023-05-05T20:48:06.837Z,48.42
2023-05-05T20:50:32.995Z,48.32
2023-05-05T20:52:59.107Z,49.07
2023-05-05T20:55:25.233Z,49.62
2023-05-05T20:57:51.350Z,49.68
2023-05-05T21:00:17.486Z,50.10
2023-05-05T21:02:43.939Z,50.00
2023-05-05T21:05:10.121Z,49.87
2023-05-05T21:07:36.291Z,50.30
2023-05-05T21:10:02.757Z,50.30
2023-05-05T21:12:28.860Z,50.05
2023-05-05T21:14:54.957Z,49.80
2023-05-05T21:17:21.146Z,49.76
2023-05-05T21:19:47.364Z,48.39
2023-05-05T21:22:13.592Z,49.92
2023-05-05T21:24:39.711Z,50.05
2023-05-05T21:27:05.817Z,50.13
2023-05-05T21:29:31.910Z,50.97
2023-05-05T21:31:58.080Z,51.16
2023-05-05T21:34:24.231Z,51.25
2023-05-05T21:36:50.317Z,51.12
2023-05-05T21:39:16.464Z,51.29
2023-05-05T21:41:42.561Z,51.60
2023-05-05T21:44:08.656Z,51.83
2023-05-05T21:46:34.972Z,52.27
2023-05-05T21:49:01.097Z,51.40
2023-05-05T21:51:27.208Z,51.78
2023-05-05T21:53:53.322Z,52.07
2023-05-05T21:56:19.422Z,52.25
2023-05-05T21:58:45.524Z,52.62
2023-05-05T22:01:11.658Z,52.47
2023-05-05T22:03:38.187Z,53.42
2023-05-05T22:06:04.372Z,53.25
2023-05-05T22:08:30.493Z,52.63
2023-05-05T22:10:56.627Z,52.84
2023-05-05T22:13:22.753Z,53.44
2023-05-05T22:15:49.298Z,53.72
2023-05-05T22:18:15.525Z,53.13
2023-05-05T22:20:41.770Z,54.03
2023-05-05T22:23:07.900Z,53.27
2023-05-05T22:25:34.125Z,53.37
2023-05-05T22:28:00.241Z,53.74
2023-05-05T22:30:26.346Z,53.62
2023-05-05T22:32:52.559Z,53.37
2023-05-05T22:35:19.076Z,53.29
2023-05-05T22:37:45.186Z,53.78
2023-05-05T22:40:11.282Z,53.75
2023-05-05T22:42:37.484Z,53.91
2023-05-05T22:45:03.591Z,54.18
2023-05-05T22:47:29.760Z,53.96
2023-05-05T22:49:55.850Z,53.63
2023-05-05T22:52:22.014Z,54.29
2023-05-05T22:54:48.128Z,54.37
2023-05-05T22:57:14.217Z,54.82
2023-05-05T22:59:40.414Z,54.09
2023-05-05T23:02:06.863Z,53.25
2023-05-05T23:04:33.042Z,53.68
2023-05-05T23:06:59.202Z,53.68
2023-05-05T23:09:25.642Z,53.87
2023-05-05T23:11:51.798Z,54.07
2023-05-05T23:14:17.902Z,53.41
2023-05-05T23:16:44.049Z,53.68
2023-05-05T23:19:10.532Z,53.80
2023-05-05T23:21:49.328Z,54.00
2023-05-05T23:24:19.168Z,54.07
2023-05-05T23:26:45.371Z,54.06
2023-05-05T23:29:11.478Z,55.06
2023-05-05T23:31:37.905Z,54.75
2023-05-05T23:34:03.999Z,55.29
2023-05-05T23:36:30.416Z,55.43
2023-05-05T23:38:56.551Z,55.56
2023-05-05T23:41:22.954Z,54.63
2023-05-05T23:43:49.049Z,53.90
2023-05-05T23:46:15.211Z,54.14
2023-05-05T23:48:41.418Z,54.91
2023-05-05T23:51:07.519Z,55.22
2023-05-05T23:53:33.618Z,54.07
2023-05-05T23:56:00.148Z,53.77
2023-05-05T23:58:26.277Z,53.95
